Hellier, Kentucky
Current Conditions -  °F | °C
As of 4:15 PM on Tuesday 21 Oct 2014 (Local Time) from KPBX Reporting Station
Overcast Overcast  
Wind Chill: 52°   Ceiling: 4600
Heat Index: 52°   Visibility: 10mi
Dew Point: 40°   Wind: 9mph
Humidity: 63%   Direction: 300°WNW
Pressure: 30.02"   Gusts: NA
Location:  37.29°N, 82.47°W
Report Text: KPBX 212015Z AUTO 30008KT 260V320 10SM BKN046 OVC060 11/04 A3002 RMK AO2 T01110044
Loading
Personal Weather Stations






























Interactive Weather Map
Tropical Storm Tracking
New forecast layout! Learn more

10-Day Weather Forecast

Advertisements
Track Severe Weather on mobile